createdAt,value
2017-09-26T00:01:51.978Z,52.10
2017-09-26T00:04:19.466Z,54.43
2017-09-26T00:06:46.894Z,54.63
2017-09-26T00:09:14.302Z,56.77
2017-09-26T00:11:41.759Z,47.37
2017-09-26T00:14:09.243Z,48.43
2017-09-26T00:16:36.655Z,56.13
2017-09-26T00:19:04.975Z,60.00
2017-09-26T00:21:32.373Z,62.78
2017-09-26T00:24:00.136Z,57.03
2017-09-26T00:26:30.068Z,56.67
2017-09-26T00:28:57.672Z,55.43
2017-09-26T00:31:25.176Z,59.30
2017-09-26T00:33:53.498Z,59.72
2017-09-26T00:36:20.929Z,52.93
2017-09-26T00:38:49.164Z,57.23
2017-09-26T00:41:16.604Z,54.80
2017-09-26T00:43:44.042Z,52.77
2017-09-26T00:46:11.498Z,64.37
2017-09-26T00:48:38.950Z,60.13
2017-09-26T00:51:06.363Z,60.83
2017-09-26T00:53:33.791Z,69.23
2017-09-26T00:56:01.326Z,59.20
2017-09-26T00:58:28.784Z,57.23
2017-09-26T01:00:56.476Z,67.43
2017-09-26T01:03:33.907Z,58.08
2017-09-26T01:06:07.804Z,59.00
2017-09-26T01:08:35.986Z,56.47
2017-09-26T01:11:04.330Z,58.20
2017-09-26T01:13:31.772Z,61.47
2017-09-26T01:15:59.251Z,58.47
2017-09-26T01:18:26.786Z,67.67
2017-09-26T01:20:54.292Z,70.87
2017-09-26T01:23:21.736Z,64.17
2017-09-26T01:25:49.228Z,65.70
2017-09-26T01:28:17.790Z,66.72
2017-09-26T01:30:45.332Z,68.40
2017-09-26T01:33:12.846Z,62.37
2017-09-26T01:35:40.534Z,60.40
2017-09-26T01:38:07.973Z,58.03
2017-09-26T01:40:47.350Z,56.97
2017-09-26T01:43:15.531Z,60.73
2017-09-26T01:45:43.730Z,64.73
2017-09-26T01:48:11.168Z,60.30
2017-09-26T01:50:38.600Z,55.40
2017-09-26T01:53:06.074Z,58.87
2017-09-26T01:55:34.263Z,57.88
2017-09-26T01:58:01.679Z,60.30
2017-09-26T02:00:29.100Z,60.25
2017-09-26T02:02:56.546Z,59.27
2017-09-26T02:05:23.995Z,63.20
2017-09-26T02:07:51.396Z,69.70
2017-09-26T02:10:18.906Z,63.73
2017-09-26T02:12:47.987Z,63.97
2017-09-26T02:15:15.724Z,62.70
2017-09-26T02:17:43.298Z,56.23
2017-09-26T02:20:11.676Z,63.33
2017-09-26T02:22:39.904Z,64.50
2017-09-26T02:25:07.348Z,56.93
2017-09-26T02:27:34.776Z,59.40
2017-09-26T02:30:02.193Z,59.80
2017-09-26T02:32:30.527Z,64.90
2017-09-26T02:34:58.153Z,57.92
2017-09-26T02:37:26.431Z,61.60
2017-09-26T02:39:54.650Z,58.47
2017-09-26T02:42:22.069Z,61.80
2017-09-26T02:44:50.247Z,67.20
2017-09-26T02:47:18.831Z,61.67
2017-09-26T02:49:46.372Z,59.07
2017-09-26T02:52:14.595Z,60.10
2017-09-26T02:54:42.027Z,60.73
2017-09-26T02:57:09.501Z,65.30
2017-09-26T02:59:37.327Z,61.77
2017-09-26T03:02:04.796Z,58.07
2017-09-26T03:04:33.004Z,62.10
2017-09-26T03:07:00.555Z,59.13
2017-09-26T03:09:27.963Z,63.23
2017-09-26T03:11:56.164Z,64.27
2017-09-26T03:14:24.379Z,63.47
2017-09-26T03:16:52.051Z,61.07
2017-09-26T03:19:19.500Z,63.80
2017-09-26T03:21:46.948Z,55.73
2017-09-26T03:24:14.395Z,62.00
2017-09-26T03:26:41.839Z,67.20
2017-09-26T03:29:09.342Z,61.00
2017-09-26T03:31:36.743Z,63.13
2017-09-26T03:34:04.268Z,64.37
2017-09-26T03:36:32.488Z,69.00
2017-09-26T03:38:59.902Z,60.57
2017-09-26T03:41:28.136Z,62.53
2017-09-26T03:43:55.558Z,62.97
2017-09-26T03:46:22.989Z,59.67
2017-09-26T03:48:50.402Z,59.83
2017-09-26T03:51:18.790Z,67.50
2017-09-26T03:53:46.279Z,68.57
2017-09-26T03:56:13.783Z,64.83
2017-09-26T03:58:41.223Z,71.33
2017-09-26T04:01:08.643Z,68.43
2017-09-26T04:03:36.835Z,65.07
2017-09-26T04:06:05.015Z,66.53
2017-09-26T04:08:32.495Z,68.47
2017-09-26T04:10:59.947Z,66.60
2017-09-26T04:13:27.414Z,69.67
2017-09-26T04:15:54.850Z,70.53
2017-09-26T04:18:22.335Z,64.05
2017-09-26T04:20:49.771Z,69.00
2017-09-26T04:23:17.207Z,66.53
2017-09-26T04:25:45.427Z,71.10
2017-09-26T04:28:12.847Z,65.43
2017-09-26T04:30:40.334Z,73.17
2017-09-26T04:33:08.396Z,64.77
2017-09-26T04:35:35.811Z,65.40
2017-09-26T04:38:04.004Z,70.70
2017-09-26T04:40:31.431Z,67.10
2017-09-26T04:42:58.855Z,71.00
2017-09-26T04:45:26.303Z,75.57
2017-09-26T04:47:53.824Z,63.93
2017-09-26T04:50:22.055Z,69.03
2017-09-26T04:52:50.585Z,82.30
2017-09-26T04:55:17.998Z,71.47
2017-09-26T04:57:45.538Z,67.13
2017-09-26T05:00:12.966Z,66.70
2017-09-26T05:02:40.433Z,73.03
2017-09-26T05:05:07.851Z,67.63
2017-09-26T05:07:36.063Z,72.70
2017-09-26T05:10:03.493Z,71.60
2017-09-26T05:12:31.687Z,76.87
2017-09-26T05:14:59.127Z,76.40
2017-09-26T05:17:26.568Z,74.07
2017-09-26T05:19:55.730Z,76.70
2017-09-26T05:22:23.147Z,81.40
2017-09-26T05:24:50.566Z,75.80
2017-09-26T05:27:18.758Z,86.83
2017-09-26T05:29:46.232Z,78.40
2017-09-26T05:32:13.649Z,85.43
2017-09-26T05:34:41.074Z,83.57
2017-09-26T05:37:08.508Z,79.67
2017-09-26T05:39:35.950Z,80.53
2017-09-26T05:42:03.406Z,93.50
2017-09-26T05:44:31.570Z,93.63
2017-09-26T05:46:59.157Z,79.87
2017-09-26T05:49:26.631Z,74.20
2017-09-26T05:51:54.054Z,82.40
2017-09-26T05:54:21.509Z,79.07
2017-09-26T05:56:48.915Z,90.00
2017-09-26T05:59:16.484Z,72.80
2017-09-26T06:01:45.418Z,79.43
2017-09-26T06:04:12.839Z,77.53
2017-09-26T06:06:40.644Z,80.97
2017-09-26T06:09:08.067Z,77.67
2017-09-26T06:11:36.283Z,85.23
2017-09-26T06:14:05.389Z,74.78
2017-09-26T06:16:32.821Z,72.10
2017-09-26T06:19:00.235Z,78.97
2017-09-26T06:21:27.667Z,67.83
2017-09-26T06:23:55.086Z,88.13
2017-09-26T06:26:22.559Z,76.90
2017-09-26T06:28:51.658Z,79.30
2017-09-26T06:31:19.100Z,74.83
2017-09-26T06:33:46.536Z,71.63
2017-09-26T06:36:14.739Z,80.50
2017-09-26T06:38:42.207Z,74.47
2017-09-26T06:41:09.711Z,71.70
2017-09-26T06:43:37.104Z,74.77
2017-09-26T06:46:05.276Z,77.93
2017-09-26T06:48:32.723Z,76.77
2017-09-26T06:51:00.892Z,88.77
2017-09-26T06:53:28.369Z,80.43
2017-09-26T06:55:55.780Z,80.23
2017-09-26T06:58:23.209Z,78.03
2017-09-26T07:00:51.605Z,78.65
2017-09-26T07:03:19.950Z,71.20
2017-09-26T07:05:47.379Z,80.83
2017-09-26T07:08:14.922Z,75.27
2017-09-26T07:10:43.110Z,81.97
2017-09-26T07:13:10.523Z,73.40
2017-09-26T07:15:37.938Z,76.50
2017-09-26T07:18:05.389Z,76.07
2017-09-26T07:20:32.807Z,77.40
2017-09-26T07:23:01.068Z,84.33
2017-09-26T07:25:28.481Z,81.30
2017-09-26T07:27:55.919Z,77.17
2017-09-26T07:30:23.339Z,74.33
2017-09-26T07:32:50.758Z,71.57
2017-09-26T07:35:18.203Z,76.73
2017-09-26T07:37:45.623Z,76.60
2017-09-26T07:40:13.808Z,78.87
2017-09-26T07:42:41.323Z,76.90
2017-09-26T07:45:08.751Z,70.27
2017-09-26T07:47:36.177Z,79.17
2017-09-26T07:50:04.367Z,69.40
2017-09-26T07:52:31.782Z,73.73
2017-09-26T07:54:59.228Z,69.07
2017-09-26T07:57:26.654Z,67.50
2017-09-26T07:59:54.102Z,72.40
2017-09-26T08:02:22.828Z,66.37
2017-09-26T08:04:50.454Z,70.17
2017-09-26T08:07:17.985Z,67.50
2017-09-26T08:09:45.798Z,72.43
2017-09-26T08:12:13.206Z,68.00
2017-09-26T08:14:40.678Z,62.37
2017-09-26T08:17:08.081Z,64.43
2017-09-26T08:19:35.503Z,70.18
2017-09-26T08:22:02.918Z,68.40
2017-09-26T08:24:31.130Z,70.33
2017-09-26T08:26:58.548Z,70.17
2017-09-26T08:29:26.771Z,62.27
2017-09-26T08:31:54.183Z,60.97
2017-09-26T08:34:23.294Z,67.57
2017-09-26T08:36:50.819Z,68.63
2017-09-26T08:39:19.039Z,66.37
2017-09-26T08:41:46.443Z,73.17
2017-09-26T08:44:13.858Z,68.27
2017-09-26T08:46:41.274Z,71.07
2017-09-26T08:49:08.699Z,69.43
2017-09-26T08:51:36.126Z,70.30
2017-09-26T08:54:03.581Z,72.87
2017-09-26T08:56:31.786Z,66.80
2017-09-26T08:58:59.211Z,57.83
2017-09-26T09:01:26.630Z,72.53
2017-09-26T09:03:54.055Z,59.00
2017-09-26T09:06:21.474Z,58.93
2017-09-26T09:08:48.927Z,61.90
2017-09-26T09:11:16.349Z,66.83
2017-09-26T09:13:44.569Z,62.17
2017-09-26T09:16:11.975Z,67.43
2017-09-26T09:18:40.161Z,63.53
2017-09-26T09:21:07.641Z,59.60
2017-09-26T09:23:35.063Z,72.57
2017-09-26T09:26:03.247Z,65.00
2017-09-26T09:28:30.665Z,73.03
2017-09-26T09:30:58.086Z,64.67
2017-09-26T09:33:25.544Z,71.43
2017-09-26T09:35:53.915Z,65.50
2017-09-26T09:38:21.331Z,73.23
2017-09-26T09:40:49.519Z,76.83
2017-09-26T09:43:18.950Z,73.20
2017-09-26T09:45:46.405Z,68.30
2017-09-26T09:48:13.865Z,69.57
2017-09-26T09:50:41.318Z,65.53
2017-09-26T09:53:08.740Z,66.80
2017-09-26T09:55:36.927Z,63.23
2017-09-26T09:58:05.103Z,58.60
2017-09-26T10:00:33.200Z,60.27
2017-09-26T10:03:00.622Z,63.93
2017-09-26T10:05:28.043Z,69.70
2017-09-26T10:07:55.465Z,67.20
2017-09-26T10:10:22.875Z,64.10
2017-09-26T10:12:51.056Z,64.57
2017-09-26T10:15:19.273Z,63.13
2017-09-26T10:17:46.721Z,67.50
2017-09-26T10:20:14.583Z,62.20
2017-09-26T10:22:42.582Z,66.15
2017-09-26T10:25:10.246Z,67.60
2017-09-26T10:27:37.673Z,69.63
2017-09-26T10:30:05.122Z,66.43
2017-09-26T10:32:32.585Z,62.20
2017-09-26T10:35:00.017Z,63.57
2017-09-26T10:37:28.202Z,70.23
2017-09-26T10:39:55.830Z,67.30
2017-09-26T10:42:23.244Z,71.57
2017-09-26T10:44:50.650Z,69.03
2017-09-26T10:47:18.871Z,71.33
2017-09-26T10:49:46.319Z,69.53
2017-09-26T10:52:13.754Z,75.60
2017-09-26T10:54:41.963Z,76.37
2017-09-26T10:57:09.404Z,71.80
2017-09-26T10:59:36.869Z,67.70
2017-09-26T11:02:04.278Z,70.55
2017-09-26T11:04:32.579Z,69.50
2017-09-26T11:07:00.198Z,65.40
2017-09-26T11:09:27.615Z,68.83
2017-09-26T11:11:56.171Z,70.57
2017-09-26T11:14:23.648Z,69.03
2017-09-26T11:16:51.063Z,65.10
2017-09-26T11:19:19.242Z,59.50
2017-09-26T11:21:47.436Z,62.33
2017-09-26T11:24:15.338Z,70.00
2017-09-26T11:26:42.783Z,66.00
2017-09-26T11:29:10.199Z,66.93
2017-09-26T11:31:38.408Z,72.53
2017-09-26T11:34:05.823Z,67.90
2017-09-26T11:36:34.007Z,64.70
2017-09-26T11:39:01.498Z,63.03
2017-09-26T11:41:28.919Z,56.83
2017-09-26T11:43:57.124Z,62.93
2017-09-26T11:46:24.580Z,60.97
2017-09-26T11:48:51.979Z,61.33
2017-09-26T11:51:19.405Z,55.40
2017-09-26T11:53:46.828Z,55.00
2017-09-26T11:56:14.318Z,61.40
2017-09-26T11:58:41.743Z,53.47
2017-09-26T12:01:09.154Z,59.53
2017-09-26T12:03:36.581Z,51.80
2017-09-26T12:06:04.015Z,56.80
2017-09-26T12:08:31.430Z,61.03
2017-09-26T12:10:58.852Z,54.23
2017-09-26T12:13:31.978Z,50.07
2017-09-26T12:15:59.392Z,50.60
2017-09-26T12:18:26.815Z,51.57
2017-09-26T12:20:54.298Z,55.17
2017-09-26T12:23:21.760Z,57.40
2017-09-26T12:25:49.526Z,57.80
2017-09-26T12:28:16.952Z,56.80
2017-09-26T12:30:44.366Z,53.67
2017-09-26T12:33:11.891Z,55.40
2017-09-26T12:35:39.319Z,58.93
2017-09-26T12:38:06.740Z,58.00
2017-09-26T12:40:34.151Z,62.30
2017-09-26T12:43:01.617Z,54.40
2017-09-26T12:45:29.019Z,61.17
2017-09-26T12:47:57.615Z,56.05
2017-09-26T12:50:25.072Z,62.50
2017-09-26T12:52:53.270Z,60.13
2017-09-26T12:55:20.732Z,63.13
2017-09-26T12:57:48.196Z,68.43
2017-09-26T13:00:15.635Z,60.03
2017-09-26T13:02:43.111Z,61.17
2017-09-26T13:05:10.535Z,66.03
2017-09-26T13:07:37.954Z,57.93
2017-09-26T13:10:05.379Z,49.03
2017-09-26T13:12:32.786Z,51.90
2017-09-26T13:15:00.958Z,49.97
2017-09-26T13:17:29.147Z,43.23
2017-09-26T13:19:58.043Z,40.70
2017-09-26T13:22:25.467Z,42.10
2017-09-26T13:24:52.995Z,42.50
2017-09-26T13:27:20.419Z,40.57
2017-09-26T13:29:47.830Z,39.43
2017-09-26T13:32:15.356Z,41.07
2017-09-26T13:34:42.771Z,39.50
2017-09-26T13:37:10.990Z,42.40
2017-09-26T13:39:38.398Z,48.20
2017-09-26T13:42:06.589Z,48.00
2017-09-26T13:44:34.005Z,57.67
2017-09-26T13:47:01.439Z,55.40
2017-09-26T13:49:28.855Z,48.30
2017-09-26T13:51:56.277Z,46.67
2017-09-26T13:54:23.796Z,49.23
2017-09-26T13:56:51.216Z,46.83
2017-09-26T13:59:19.828Z,45.87
2017-09-26T14:01:47.290Z,53.00
2017-09-26T14:04:14.727Z,54.20
2017-09-26T14:06:42.147Z,50.87
2017-09-26T14:09:09.566Z,51.80
2017-09-26T14:11:37.009Z,51.93
2017-09-26T14:14:04.465Z,50.27
2017-09-26T14:16:31.918Z,47.50
2017-09-26T14:18:59.591Z,46.83
2017-09-26T14:21:27.019Z,46.33
2017-09-26T14:23:54.434Z,47.90
2017-09-26T14:26:21.968Z,46.77
2017-09-26T14:28:49.387Z,46.20
2017-09-26T14:31:16.875Z,48.93
2017-09-26T14:33:44.428Z,47.27
2017-09-26T14:36:11.850Z,48.30
2017-09-26T14:38:40.034Z,49.67
2017-09-26T14:41:07.452Z,50.13
2017-09-26T14:43:34.871Z,51.03
2017-09-26T14:46:02.295Z,45.27
2017-09-26T14:48:30.472Z,50.53
2017-09-26T14:50:59.351Z,47.17
2017-09-26T14:53:28.463Z,51.57
2017-09-26T14:55:56.275Z,49.10
2017-09-26T14:58:23.799Z,48.13
2017-09-26T15:00:51.256Z,55.20
2017-09-26T15:03:18.679Z,47.77
2017-09-26T15:05:46.867Z,49.07
2017-09-26T15:08:14.358Z,52.33
2017-09-26T15:10:41.826Z,46.57
2017-09-26T15:13:09.245Z,54.80
2017-09-26T15:15:36.658Z,50.30
2017-09-26T15:18:04.850Z,54.23
2017-09-26T15:20:33.035Z,54.43
2017-09-26T15:23:01.212Z,55.70
2017-09-26T15:25:29.311Z,50.80
2017-09-26T15:27:56.736Z,51.93
2017-09-26T15:30:25.554Z,54.60
2017-09-26T15:32:52.979Z,53.40
2017-09-26T15:35:21.180Z,53.40
2017-09-26T15:37:48.595Z,55.33
2017-09-26T15:40:17.449Z,52.23
2017-09-26T15:42:44.911Z,52.47
2017-09-26T15:45:12.443Z,65.13
2017-09-26T15:47:39.863Z,63.77
2017-09-26T15:50:08.058Z,61.50
2017-09-26T15:52:35.723Z,59.03
2017-09-26T15:55:03.139Z,51.60
2017-09-26T15:57:30.644Z,55.37
2017-09-26T15:59:58.058Z,52.60
2017-09-26T16:02:27.060Z,60.37
2017-09-26T16:04:55.251Z,61.47
2017-09-26T16:07:22.677Z,53.77
2017-09-26T16:09:50.101Z,53.83
2017-09-26T16:12:17.512Z,55.27
2017-09-26T16:14:44.938Z,55.13
2017-09-26T16:17:12.346Z,63.13
2017-09-26T16:19:39.771Z,62.07
2017-09-26T16:22:07.956Z,57.00
2017-09-26T16:24:35.371Z,62.40
2017-09-26T16:27:02.793Z,60.87
2017-09-26T16:29:30.208Z,63.20
2017-09-26T16:31:58.402Z,63.10
2017-09-26T16:34:25.874Z,59.37
2017-09-26T16:36:53.292Z,71.73
2017-09-26T16:39:21.475Z,58.80
2017-09-26T16:41:49.671Z,58.53
2017-09-26T16:44:17.086Z,53.27
2017-09-26T16:46:45.290Z,59.77
2017-09-26T16:49:12.699Z,60.07
2017-09-26T16:51:40.216Z,60.30
2017-09-26T16:54:07.637Z,58.63
2017-09-26T16:56:36.357Z,58.13
2017-09-26T16:59:03.771Z,52.93
2017-09-26T17:01:31.199Z,56.50
2017-09-26T17:03:58.616Z,54.20
2017-09-26T17:06:26.028Z,60.40
2017-09-26T17:08:53.440Z,69.30
2017-09-26T17:11:20.859Z,59.57
2017-09-26T17:13:49.091Z,60.95
2017-09-26T17:16:16.500Z,62.23
2017-09-26T17:18:44.498Z,67.90
2017-09-26T17:21:12.653Z,55.97
2017-09-26T17:23:40.167Z,62.03
2017-09-26T17:26:08.499Z,57.20
2017-09-26T17:28:36.092Z,65.00
2017-09-26T17:31:04.320Z,57.97
2017-09-26T17:33:31.953Z,62.30
2017-09-26T17:36:01.219Z,60.40
2017-09-26T17:38:28.924Z,63.53
2017-09-26T17:40:56.448Z,62.87
2017-09-26T17:43:23.999Z,62.35
2017-09-26T17:45:51.632Z,63.23
2017-09-26T17:48:19.491Z,65.90
2017-09-26T17:50:46.991Z,64.57
2017-09-26T17:53:14.446Z,61.00
2017-09-26T17:55:41.969Z,76.22
2017-09-26T17:58:09.492Z,65.27
2017-09-26T18:00:37.754Z,68.23
2017-09-26T18:03:05.243Z,68.03
2017-09-26T18:05:33.705Z,68.77
2017-09-26T18:08:02.017Z,65.97
2017-09-26T18:10:29.564Z,74.60
2017-09-26T18:12:57.756Z,72.23
2017-09-26T18:15:25.544Z,65.33
2017-09-26T18:17:53.016Z,63.27
2017-09-26T18:20:20.554Z,66.53
2017-09-26T18:22:48.029Z,65.27
2017-09-26T18:25:15.679Z,57.20
2017-09-26T18:27:43.498Z,59.20
2017-09-26T18:30:11.182Z,56.92
2017-09-26T18:32:38.699Z,55.38
2017-09-26T18:35:06.177Z,49.75
2017-09-26T18:37:34.417Z,48.83
2017-09-26T18:40:02.195Z,45.17
2017-09-26T18:42:29.901Z,53.10
2017-09-26T18:44:57.450Z,45.53
2017-09-26T18:47:25.699Z,43.03
2017-09-26T18:49:53.903Z,45.63
2017-09-26T18:52:21.331Z,35.33
2017-09-26T18:54:48.834Z,32.00
2017-09-26T18:57:16.342Z,24.97
2017-09-26T18:59:43.885Z,21.10
2017-09-26T19:02:11.344Z,22.07
2017-09-26T19:04:39.586Z,29.00
2017-09-26T19:07:07.022Z,18.00
2017-09-26T19:09:34.549Z,18.40
2017-09-26T19:12:02.872Z,21.48
2017-09-26T19:14:30.418Z,19.97
2017-09-26T19:16:57.827Z,20.00
2017-09-26T19:19:25.757Z,23.07
2017-09-26T19:21:53.380Z,23.33
2017-09-26T19:24:21.864Z,21.30
2017-09-26T19:26:50.164Z,25.53
2017-09-26T19:29:18.322Z,28.12
2017-09-26T19:31:46.614Z,25.33
2017-09-26T19:34:14.178Z,25.60
2017-09-26T19:36:41.611Z,27.50
2017-09-26T19:39:09.098Z,28.90
2017-09-26T19:41:36.536Z,28.80
2017-09-26T19:44:03.951Z,34.03
2017-09-26T19:46:33.064Z,35.80
2017-09-26T19:49:02.167Z,32.60
2017-09-26T19:51:29.611Z,35.40
2017-09-26T19:53:57.003Z,30.50
2017-09-26T19:56:24.460Z,31.50
2017-09-26T19:58:51.871Z,30.30
2017-09-26T20:01:20.051Z,30.53
2017-09-26T20:03:48.255Z,30.60
2017-09-26T20:06:15.721Z,33.60
2017-09-26T20:08:43.118Z,38.33
2017-09-26T20:11:10.539Z,40.67
2017-09-26T20:13:37.978Z,55.20
2017-09-26T20:16:05.797Z,43.60
2017-09-26T20:18:33.339Z,44.73
2017-09-26T20:21:00.797Z,41.90
2017-09-26T20:23:28.198Z,43.43
2017-09-26T20:28:39.518Z,55.43
2017-09-26T20:31:06.930Z,47.37
2017-09-26T20:33:35.204Z,43.83
2017-09-26T20:36:03.819Z,43.47
2017-09-26T20:38:32.959Z,43.83
2017-09-26T20:41:00.384Z,42.30
2017-09-26T20:43:27.877Z,44.23
2017-09-26T20:45:55.557Z,47.37
2017-09-26T20:48:23.011Z,44.83
2017-09-26T20:50:50.450Z,46.53
2017-09-26T20:53:17.851Z,48.50
2017-09-26T20:55:45.326Z,57.13
2017-09-26T20:58:12.772Z,52.20
2017-09-26T21:00:40.279Z,52.53
2017-09-26T21:03:07.763Z,59.87
2017-09-26T21:05:35.212Z,51.53
2017-09-26T21:08:03.558Z,64.90
2017-09-26T21:10:30.974Z,58.23
2017-09-26T21:12:58.400Z,60.20
2017-09-26T21:15:26.574Z,67.87
2017-09-26T21:17:54.784Z,63.20
2017-09-26T21:20:22.207Z,59.93
2017-09-26T21:22:50.387Z,64.17
2017-09-26T21:25:18.746Z,66.17
2017-09-26T21:27:46.254Z,62.23
2017-09-26T21:30:14.442Z,57.93
2017-09-26T21:32:41.875Z,66.23
2017-09-26T21:35:09.335Z,60.07
2017-09-26T21:37:36.808Z,75.63
2017-09-26T21:40:04.231Z,72.10
2017-09-26T21:42:31.651Z,70.57
2017-09-26T21:44:59.088Z,69.40
2017-09-26T21:47:26.511Z,66.80
2017-09-26T21:49:53.938Z,74.40
2017-09-26T21:52:22.126Z,69.90
2017-09-26T21:54:50.310Z,63.70
2017-09-26T21:57:18.014Z,74.47
2017-09-26T21:59:45.715Z,70.13
2017-09-26T22:02:13.910Z,72.17
2017-09-26T22:04:41.410Z,70.67
2017-09-26T22:07:08.836Z,70.43
2017-09-26T22:09:36.721Z,76.53
2017-09-26T22:12:05.359Z,70.97
2017-09-26T22:14:34.484Z,70.57
2017-09-26T22:17:01.895Z,75.77
2017-09-26T22:19:30.083Z,72.10
2017-09-26T22:21:58.919Z,70.40
2017-09-26T22:24:26.339Z,71.07
2017-09-26T22:26:53.771Z,69.03
2017-09-26T22:29:21.178Z,71.33
2017-09-26T22:31:48.640Z,67.90
2017-09-26T22:34:16.059Z,71.30
2017-09-26T22:36:43.475Z,66.43
2017-09-26T22:39:10.897Z,62.00
2017-09-26T22:41:38.329Z,62.13
2017-09-26T22:44:05.742Z,64.20
2017-09-26T22:46:33.166Z,61.77
2017-09-26T22:49:00.587Z,65.77
2017-09-26T22:51:28.775Z,66.13
2017-09-26T22:53:56.238Z,70.57
2017-09-26T22:56:23.906Z,69.83
2017-09-26T22:58:51.461Z,73.40
2017-09-26T23:01:18.881Z,74.90
2017-09-26T23:03:47.068Z,72.10
2017-09-26T23:06:15.243Z,74.80
2017-09-26T23:08:43.931Z,78.03
2017-09-26T23:11:11.412Z,81.63
2017-09-26T23:13:38.879Z,79.60
2017-09-26T23:16:06.310Z,85.13
2017-09-26T23:18:34.163Z,84.43
2017-09-26T23:21:01.642Z,88.70
2017-09-26T23:23:29.063Z,93.37
2017-09-26T23:25:57.266Z,87.10
2017-09-26T23:28:24.728Z,82.70
2017-09-26T23:30:52.136Z,97.83
2017-09-26T23:33:21.124Z,82.60
2017-09-26T23:35:48.642Z,88.07
2017-09-26T23:38:16.201Z,88.17
2017-09-26T23:40:43.615Z,97.40
2017-09-26T23:43:11.808Z,87.27
2017-09-26T23:45:39.293Z,98.37
2017-09-26T23:48:06.745Z,87.60
2017-09-26T23:50:34.162Z,94.47
2017-09-26T23:53:02.347Z,95.87
2017-09-26T23:55:30.554Z,102.20
2017-09-26T23:57:58.002Z,99.40
